Time;durP1;ratioP1;P1;durP2;ratioP2;P2;SDS_P1;SDS_P2;PMS_P1;PMS_P2;Temp;Humidity;BMP_temperature;BMP_pressure;BME280_temperature;BME280_humidity;BME280_pressure;Samples;Min_cycle;Max_cycle;Signal;HPM_P1;HPM_P2
2021/07/06 00:02:22;;;;;;;1.20;1.10;;;20.10;83.30;;;;;;3533354;40;20027;-69
2021/07/06 00:04:50;;;;;;;1.50;1.40;;;20.10;83.50;;;;;;3529529;40;20043;-69
2021/07/06 00:07:18;;;;;;;2.10;1.20;;;20.10;83.60;;;;;;3531241;40;20085;-69
2021/07/06 00:09:47;;;;;;;3.63;1.38;;;20.10;83.80;;;;;;3531797;40;20081;-69
2021/07/06 00:12:14;;;;;;;1.83;1.30;;;20.10;83.80;;;;;;3530917;40;20633;-69
2021/07/06 00:14:39;;;;;;;1.45;1.33;;;20.10;83.50;;;;;;3531523;40;20047;-69
2021/07/06 00:17:06;;;;;;;1.63;1.20;;;20.10;83.30;;;;;;3532167;40;20040;-69
2021/07/06 00:19:32;;;;;;;1.40;1.30;;;20.20;83.30;;;;;;3529470;40;20051;-67
2021/07/06 00:21:58;;;;;;;3.10;1.20;;;20.20;83.20;;;;;;3531522;40;20046;-67
2021/07/06 00:24:23;;;;;;;1.40;1.30;;;20.30;83.40;;;;;;3532969;40;20031;-67
2021/07/06 00:26:49;;;;;;;3.03;1.42;;;20.20;83.40;;;;;;3532081;40;20042;-66
2021/07/06 00:29:15;;;;;;;1.40;1.08;;;20.20;83.40;;;;;;3533004;40;20080;-67
2021/07/06 00:31:40;;;;;;;1.48;1.20;;;20.20;83.20;;;;;;3532956;40;20046;-69
2021/07/06 00:34:06;;;;;;;1.40;1.30;;;20.20;83.10;;;;;;3534325;40;20054;-67
2021/07/06 00:36:32;;;;;;;2.25;1.25;;;20.20;83.20;;;;;;3533601;40;20050;-67
2021/07/06 00:38:58;;;;;;;3.15;1.25;;;20.30;83.20;;;;;;3532108;40;20419;-67
2021/07/06 00:41:23;;;;;;;1.55;1.23;;;20.20;83.00;;;;;;3534345;40;20018;-67
2021/07/06 00:43:49;;;;;;;1.77;1.33;;;20.20;82.60;;;;;;3533277;40;20049;-67
2021/07/06 00:46:15;;;;;;;1.40;1.30;;;20.20;82.60;;;;;;3536500;40;20577;-67
2021/07/06 00:48:40;;;;;;;1.27;1.17;;;20.20;82.50;;;;;;3533774;40;20112;-67
2021/07/06 00:51:06;;;;;;;1.40;1.15;;;20.20;82.30;;;;;;3530974;40;20058;-66
2021/07/06 00:53:31;;;;;;;1.30;1.20;;;20.10;82.40;;;;;;3532821;40;20726;-67
2021/07/06 00:55:58;;;;;;;4.30;1.55;;;20.10;82.70;;;;;;3531544;40;20119;-67
2021/07/06 00:58:27;;;;;;;1.42;1.30;;;20.00;83.00;;;;;;3532637;40;20034;-67
2021/07/06 01:00:53;;;;;;;1.60;1.45;;;20.00;83.20;;;;;;3533875;40;20131;-67
2021/07/06 01:03:19;;;;;;;1.40;1.30;;;19.90;83.40;;;;;;3532688;40;20079;-67
2021/07/06 01:05:45;;;;;;;2.25;1.40;;;19.80;83.70;;;;;;3532525;40;20034;-67
2021/07/06 01:08:12;;;;;;;1.40;1.30;;;19.80;84.00;;;;;;3534362;40;20089;-67
2021/07/06 01:10:38;;;;;;;1.80;1.48;;;19.80;84.10;;;;;;3532853;40;20053;-67
2021/07/06 01:13:05;;;;;;;2.38;1.40;;;19.80;84.30;;;;;;3532545;40;20507;-67
2021/07/06 01:15:33;;;;;;;3.10;1.40;;;19.80;84.50;;;;;;3530385;40;20071;-67
2021/07/06 01:18:05;;;;;;;1.40;1.30;;;19.70;84.50;;;;;;3533438;40;20062;-67
2021/07/06 01:20:31;;;;;;;1.17;1.10;;;19.70;84.70;;;;;;3534435;40;20031;-67
2021/07/06 01:22:58;;;;;;;1.50;1.40;;;19.70;84.90;;;;;;3533245;40;20108;-67
2021/07/06 01:25:23;;;;;;;1.67;1.15;;;19.70;84.80;;;;;;3533204;40;20038;-66
2021/07/06 01:27:49;;;;;;;2.08;1.55;;;19.70;84.60;;;;;;3532093;40;20060;-67
2021/07/06 01:30:16;;;;;;;1.63;1.50;;;19.70;84.50;;;;;;3531715;40;20314;-67
2021/07/06 01:32:44;;;;;;;1.98;1.23;;;19.70;84.50;;;;;;3533754;40;20038;-67
2021/07/06 01:35:11;;;;;;;1.27;1.17;;;19.70;84.30;;;;;;3533026;40;20470;-67
2021/07/06 01:37:49;;;;;;;1.35;1.25;;;19.60;84.30;;;;;;3531931;40;20035;-67
2021/07/06 01:40:16;;;;;;;1.38;1.27;;;19.60;84.50;;;;;;3532031;40;20083;-67
2021/07/06 01:42:42;;;;;;;1.83;1.60;;;19.50;84.50;;;;;;3531846;40;20087;-67
2021/07/06 01:45:11;;;;;;;1.42;1.33;;;19.50;84.70;;;;;;3531789;40;20027;-67
2021/07/06 01:47:39;;;;;;;2.00;1.33;;;19.40;84.90;;;;;;3531280;40;20604;-67
2021/07/06 01:50:06;;;;;;;2.13;1.42;;;19.40;85.20;;;;;;3531759;40;20070;-67
2021/07/06 01:52:32;;;;;;;1.83;1.50;;;19.30;85.30;;;;;;3530917;40;20099;-67
2021/07/06 01:54:58;;;;;;;1.48;1.38;;;19.30;85.50;;;;;;3526827;40;20054;-67
2021/07/06 01:57:24;;;;;;;2.70;1.63;;;19.30;85.60;;;;;;3529155;40;20062;-67
2021/07/06 01:59:51;;;;;;;2.50;1.52;;;19.30;85.50;;;;;;3532715;40;20026;-67
2021/07/06 02:02:17;;;;;;;1.50;1.40;;;19.30;85.70;;;;;;3533609;40;20031;-66
2021/07/06 02:04:45;;;;;;;1.50;1.40;;;19.30;85.50;;;;;;3533985;40;20517;-68
2021/07/06 02:07:10;;;;;;;1.30;1.20;;;19.20;85.40;;;;;;3531867;40;20038;-67
2021/07/06 02:09:36;;;;;;;1.50;1.40;;;19.20;85.60;;;;;;3531179;40;20023;-67
2021/07/06 02:12:02;;;;;;;2.25;1.30;;;19.20;85.80;;;;;;3534363;40;20026;-66
2021/07/06 02:14:28;;;;;;;1.80;1.35;;;19.20;85.80;;;;;;3532024;40;20027;-67
2021/07/06 02:16:53;;;;;;;1.35;1.25;;;19.30;86.00;;;;;;3532415;40;20156;-67
2021/07/06 02:19:19;;;;;;;5.30;1.58;;;19.30;85.10;;;;;;3531501;40;20856;-67
2021/07/06 02:21:45;;;;;;;1.63;1.35;;;19.30;84.80;;;;;;3533514;40;20139;-67
2021/07/06 02:24:11;;;;;;;2.22;1.55;;;19.30;84.80;;;;;;3532279;40;20070;-67
2021/07/06 02:26:37;;;;;;;2.08;1.70;;;19.30;84.80;;;;;;3533943;40;20034;-67
2021/07/06 02:29:02;;;;;;;1.50;1.40;;;19.40;84.30;;;;;;3533129;40;20062;-67
2021/07/06 02:31:28;;;;;;;2.83;1.42;;;19.30;84.60;;;;;;3532390;40;20054;-67
2021/07/06 02:33:54;;;;;;;1.73;1.63;;;19.40;84.80;;;;;;3533695;40;20525;-67
2021/07/06 02:36:19;;;;;;;1.90;1.70;;;19.40;84.40;;;;;;3534001;40;20498;-67
2021/07/06 02:38:45;;;;;;;1.83;1.30;;;19.40;84.40;;;;;;3534462;40;20055;-67
2021/07/06 02:41:11;;;;;;;1.60;1.50;;;19.40;84.60;;;;;;3533130;40;20078;-67
2021/07/06 02:43:38;;;;;;;2.33;1.45;;;19.40;84.00;;;;;;3532334;40;20030;-67
2021/07/06 02:46:04;;;;;;;1.48;1.38;;;19.40;83.90;;;;;;3533158;40;20047;-67
2021/07/06 02:48:30;;;;;;;1.45;1.35;;;19.40;83.90;;;;;;3531246;40;20382;-67
2021/07/06 02:50:56;;;;;;;2.45;1.40;;;19.40;83.90;;;;;;3532816;40;20414;-67
2021/07/06 02:53:22;;;;;;;1.70;1.60;;;19.40;84.00;;;;;;3532579;40;20091;-67
2021/07/06 02:55:47;;;;;;;4.03;1.60;;;19.30;84.30;;;;;;3532291;40;20088;-67
2021/07/06 02:58:13;;;;;;;1.63;1.52;;;19.30;84.40;;;;;;3533267;40;20035;-67
2021/07/06 03:00:39;;;;;;;3.38;1.30;;;19.40;84.50;;;;;;3532927;40;20050;-67
2021/07/06 03:03:07;;;;;;;2.08;1.38;;;19.40;84.50;;;;;;3531162;40;20119;-66
2021/07/06 03:05:34;;;;;;;2.00;1.27;;;19.50;84.50;;;;;;3533304;40;20088;-67
2021/07/06 03:08:01;;;;;;;1.85;1.40;;;19.50;83.50;;;;;;3531533;40;20074;-67
2021/07/06 03:10:32;;;;;;;2.05;1.35;;;19.60;83.50;;;;;;3531379;40;20049;-67
2021/07/06 03:12:58;;;;;;;2.50;1.50;;;19.60;83.60;;;;;;3531086;40;20042;-66
2021/07/06 03:15:27;;;;;;;1.60;1.50;;;19.60;83.50;;;;;;3533099;40;20557;-67
2021/07/06 03:17:53;;;;;;;3.47;1.48;;;19.60;83.40;;;;;;3528361;40;20046;-67
2021/07/06 03:20:20;;;;;;;1.90;1.40;;;19.60;83.40;;;;;;3532256;40;20781;-67
2021/07/06 03:22:46;;;;;;;2.53;1.50;;;19.60;83.40;;;;;;3531540;40;20398;-67
2021/07/06 03:25:16;;;;;;;4.25;1.50;;;19.70;83.30;;;;;;3529912;40;20027;-67
2021/07/06 03:27:42;;;;;;;1.30;1.20;;;19.70;83.10;;;;;;3529541;40;20054;-67
2021/07/06 03:30:16;;;;;;;1.65;1.50;;;19.70;83.10;;;;;;3531798;40;20039;-67
2021/07/06 03:32:42;;;;;;;1.48;1.38;;;19.70;83.10;;;;;;3530544;40;20045;-67
2021/07/06 03:35:09;;;;;;;1.55;1.45;;;19.80;82.90;;;;;;3531325;40;20050;-67
2021/07/06 03:37:35;;;;;;;2.22;1.52;;;19.80;83.20;;;;;;3531537;40;20119;-67
2021/07/06 03:40:03;;;;;;;1.58;1.48;;;19.90;83.00;;;;;;3531018;40;20042;-67
2021/07/06 03:42:28;;;;;;;1.45;1.35;;;19.90;82.60;;;;;;3530860;40;20031;-67
2021/07/06 03:44:54;;;;;;;3.30;1.65;;;19.90;82.30;;;;;;3532150;40;20049;-67
2021/07/06 03:47:20;;;;;;;1.60;1.50;;;19.90;82.20;;;;;;3531591;40;20121;-67
2021/07/06 03:49:46;;;;;;;1.77;1.40;;;19.80;82.20;;;;;;3531174;40;20039;-67
2021/07/06 03:52:11;;;;;;;1.50;1.40;;;19.80;82.40;;;;;;3531262;40;20026;-67
2021/07/06 03:54:37;;;;;;;2.95;1.77;;;19.70;82.70;;;;;;3533566;40;20844;-67
2021/07/06 03:57:03;;;;;;;4.22;1.70;;;19.70;82.80;;;;;;3531699;40;20108;-67
2021/07/06 03:59:29;;;;;;;4.13;1.75;;;19.60;83.00;;;;;;3531999;40;20035;-67
2021/07/06 04:01:54;;;;;;;1.70;1.60;;;19.60;83.20;;;;;;3529970;40;20168;-67
2021/07/06 04:04:20;;;;;;;4.00;1.60;;;19.60;83.40;;;;;;3533337;40;20026;-67
2021/07/06 04:06:46;;;;;;;2.55;1.42;;;19.50;83.60;;;;;;3532833;40;20057;-66
2021/07/06 04:09:12;;;;;;;3.17;1.75;;;19.50;83.70;;;;;;3534118;40;20038;-67
2021/07/06 04:11:39;;;;;;;3.25;1.70;;;19.50;83.80;;;;;;3532628;40;20172;-66
2021/07/06 04:14:05;;;;;;;5.18;2.03;;;19.50;83.80;;;;;;3532452;40;20049;-67
2021/07/06 04:16:31;;;;;;;2.67;1.80;;;19.50;84.00;;;;;;3532516;40;20035;-67
2021/07/06 04:18:57;;;;;;;3.42;1.80;;;19.50;84.20;;;;;;3531524;40;20706;-67
2021/07/06 04:21:23;;;;;;;2.42;1.63;;;19.50;84.30;;;;;;3531852;40;20367;-67
2021/07/06 04:23:49;;;;;;;1.77;1.63;;;19.60;84.20;;;;;;3532895;40;20041;-67
2021/07/06 04:26:14;;;;;;;4.88;2.00;;;19.60;84.20;;;;;;3534412;40;20228;-67
2021/07/06 04:28:40;;;;;;;4.85;1.52;;;19.60;84.00;;;;;;3534754;40;20647;-67
2021/07/06 04:31:06;;;;;;;1.77;1.67;;;19.70;83.90;;;;;;3532974;40;20030;-67
2021/07/06 04:33:32;;;;;;;2.47;1.75;;;19.70;84.00;;;;;;3533591;40;20030;-67
2021/07/06 04:35:58;;;;;;;2.53;1.80;;;19.70;84.00;;;;;;3535583;40;20102;-67
2021/07/06 04:38:24;;;;;;;3.05;1.77;;;19.80;84.40;;;;;;3531377;40;20381;-67
2021/07/06 04:40:50;;;;;;;2.63;1.42;;;19.90;84.50;;;;;;3534421;40;20064;-67
2021/07/06 04:43:16;;;;;;;1.90;1.80;;;19.90;84.20;;;;;;3533052;40;20404;-67
2021/07/06 04:45:41;;;;;;;1.70;1.60;;;20.00;83.70;;;;;;3531462;40;20054;-67
2021/07/06 04:48:07;;;;;;;2.53;1.77;;;20.10;83.30;;;;;;3532397;40;20719;-67
2021/07/06 04:50:36;;;;;;;9.15;1.70;;;20.20;82.70;;;;;;3533176;40;20178;-67
2021/07/06 04:53:03;;;;;;;3.72;1.30;;;20.30;82.40;;;;;;3533407;40;20034;-67
2021/07/06 04:55:29;;;;;;;2.60;1.38;;;20.40;82.60;;;;;;3534013;40;20339;-67
2021/07/06 04:57:55;;;;;;;3.33;1.80;;;20.50;81.60;;;;;;3532737;40;20046;-67
2021/07/06 05:00:20;;;;;;;5.53;2.00;;;20.60;81.60;;;;;;3532617;40;20046;-67
2021/07/06 05:02:47;;;;;;;2.83;1.77;;;20.60;81.10;;;;;;3531141;40;20066;-67
2021/07/06 05:05:13;;;;;;;1.67;1.58;;;20.80;80.60;;;;;;3532704;40;20633;-67
2021/07/06 05:07:40;;;;;;;2.17;1.40;;;20.80;80.10;;;;;;3531685;40;20038;-67
2021/07/06 05:10:09;;;;;;;2.45;1.40;;;20.90;79.40;;;;;;3533222;40;20542;-67
2021/07/06 05:12:35;;;;;;;1.63;1.33;;;20.90;79.10;;;;;;3533868;40;20427;-67
2021/07/06 05:15:00;;;;;;;2.60;1.45;;;21.00;78.80;;;;;;3533286;40;20055;-67
2021/07/06 05:17:26;;;;;;;2.05;1.48;;;21.10;78.50;;;;;;3523213;40;20030;-67
2021/07/06 05:19:53;;;;;;;2.38;1.40;;;21.20;78.10;;;;;;3533132;40;20102;-67
2021/07/06 05:22:19;;;;;;;4.20;1.75;;;21.30;77.50;;;;;;3533189;40;20127;-67
2021/07/06 05:24:45;;;;;;;1.30;1.20;;;21.30;77.50;;;;;;3534435;40;20034;-67
2021/07/06 05:27:10;;;;;;;1.50;1.40;;;21.40;77.20;;;;;;3533279;40;20037;-67
2021/07/06 05:29:36;;;;;;;3.15;1.27;;;21.50;76.80;;;;;;3534996;40;20019;-65
2021/07/06 05:32:02;;;;;;;3.30;1.42;;;21.60;76.20;;;;;;3532430;40;20026;-67
2021/07/06 05:34:28;;;;;;;4.35;1.50;;;21.80;75.60;;;;;;3532354;40;20662;-67
2021/07/06 05:36:54;;;;;;;1.95;1.23;;;21.80;75.60;;;;;;3532966;40;20057;-67
2021/07/06 05:39:20;;;;;;;2.63;1.30;;;21.80;75.20;;;;;;3533859;40;20026;-67
2021/07/06 05:41:48;;;;;;;2.83;1.30;;;21.90;74.90;;;;;;3532310;40;20038;-67
2021/07/06 05:44:14;;;;;;;1.60;1.50;;;21.90;75.00;;;;;;3533727;40;20042;-67
2021/07/06 05:46:40;;;;;;;2.70;1.20;;;22.00;74.60;;;;;;3533161;40;20019;-67
2021/07/06 05:49:05;;;;;;;1.98;1.42;;;22.00;74.70;;;;;;3533100;40;20045;-67
2021/07/06 05:51:31;;;;;;;2.05;1.50;;;22.00;74.80;;;;;;3530421;40;20051;-67
2021/07/06 05:53:57;;;;;;;1.85;1.40;;;22.00;74.30;;;;;;3533683;40;20067;-67
2021/07/06 05:56:23;;;;;;;3.90;1.52;;;22.10;74.30;;;;;;3531345;40;20042;-64
2021/07/06 05:58:49;;;;;;;1.42;1.20;;;22.10;73.80;;;;;;3533011;40;20038;-64
2021/07/06 06:01:16;;;;;;;4.20;1.40;;;22.10;74.00;;;;;;3532315;40;20035;-66
2021/07/06 06:03:41;;;;;;;1.48;1.27;;;22.20;73.80;;;;;;3530196;40;20439;-64
2021/07/06 06:06:08;;;;;;;1.42;1.30;;;22.30;73.60;;;;;;3533437;40;20066;-64
2021/07/06 06:08:36;;;;;;;1.90;1.33;;;22.40;72.80;;;;;;3531973;40;20023;-65
2021/07/06 06:11:02;;;;;;;1.60;1.25;;;22.40;73.10;;;;;;3530659;40;20034;-63
2021/07/06 06:13:28;;;;;;;5.10;1.30;;;22.50;73.30;;;;;;3529782;40;20054;-65
2021/07/06 06:15:54;;;;;;;2.92;1.85;;;22.70;72.00;;;;;;3534480;40;20034;-65
2021/07/06 06:18:20;;;;;;;2.47;1.88;;;22.70;72.40;;;;;;3532667;40;20034;-65
2021/07/06 06:20:45;;;;;;;2.72;1.40;;;22.70;72.60;;;;;;3534625;40;20755;-64
2021/07/06 06:23:11;;;;;;;4.18;1.40;;;22.80;72.50;;;;;;3532003;40;20051;-64
2021/07/06 06:25:37;;;;;;;2.60;1.35;;;22.80;72.30;;;;;;3533028;40;20070;-64
2021/07/06 06:28:03;;;;;;;2.70;1.80;;;22.90;72.40;;;;;;3534223;40;20062;-66
2021/07/06 06:30:28;;;;;;;3.03;1.42;;;23.00;71.70;;;;;;3532107;40;20128;-65
2021/07/06 06:32:55;;;;;;;4.15;1.60;;;23.00;71.30;;;;;;3532545;40;20042;-66
2021/07/06 06:35:22;;;;;;;3.22;1.50;;;23.10;70.80;;;;;;3531034;40;20031;-66
2021/07/06 06:37:48;;;;;;;2.22;1.30;;;23.20;70.30;;;;;;3536326;40;20038;-65
2021/07/06 06:40:14;;;;;;;2.70;1.40;;;23.20;70.70;;;;;;3532237;40;20143;-65
2021/07/06 06:42:40;;;;;;;2.78;1.17;;;23.20;69.80;;;;;;3533314;40;20038;-65
2021/07/06 06:45:08;;;;;;;5.57;1.50;;;23.30;70.00;;;;;;3531698;40;20046;-65
2021/07/06 06:47:36;;;;;;;4.70;2.05;;;23.40;69.60;;;;;;3533788;40;20026;-66
2021/07/06 06:50:03;;;;;;;2.10;1.52;;;23.50;69.20;;;;;;3526809;40;20603;-66
2021/07/06 06:52:28;;;;;;;3.08;1.33;;;23.60;69.30;;;;;;3535104;40;20123;-66
2021/07/06 06:54:54;;;;;;;3.72;1.77;;;23.70;69.00;;;;;;3535187;40;20031;-67
2021/07/06 06:57:21;;;;;;;1.85;0.90;;;23.80;69.20;;;;;;3533440;40;20124;-66
2021/07/06 06:59:49;;;;;;;1.73;1.00;;;24.00;69.20;;;;;;3532461;40;20034;-66
2021/07/06 07:02:19;;;;;;;4.45;1.25;;;24.20;66.40;;;;;;3532151;40;20043;-66
2021/07/06 07:04:50;;;;;;;2.28;1.40;;;24.30;65.70;;;;;;3532332;40;20022;-66
2021/07/06 07:07:17;;;;;;;1.42;1.10;;;24.40;65.80;;;;;;3533833;40;20050;-66
2021/07/06 07:09:44;;;;;;;2.28;1.10;;;24.50;66.10;;;;;;3530180;40;20092;-66
2021/07/06 07:12:10;;;;;;;1.60;1.40;;;24.70;65.90;;;;;;3532561;40;20095;-66
2021/07/06 07:14:37;;;;;;;4.40;1.50;;;24.90;63.40;;;;;;3532033;40;20053;-65
2021/07/06 07:17:04;;;;;;;2.63;1.70;;;24.80;63.60;;;;;;3533901;40;20042;-66
2021/07/06 07:19:30;;;;;;;2.78;1.73;;;24.80;63.60;;;;;;3534142;40;20038;-66
2021/07/06 07:21:56;;;;;;;1.60;1.30;;;24.80;64.20;;;;;;3531294;40;20133;-66
2021/07/06 07:24:22;;;;;;;2.38;1.35;;;24.80;64.70;;;;;;3532229;40;20075;-65
2021/07/06 07:26:49;;;;;;;1.65;1.10;;;24.90;64.60;;;;;;3531206;40;20038;-66
2021/07/06 07:29:15;;;;;;;1.48;1.25;;;24.90;64.30;;;;;;3531273;40;20543;-66
2021/07/06 07:31:41;;;;;;;1.63;1.30;;;24.90;64.20;;;;;;3531466;40;20038;-66
2021/07/06 07:34:07;;;;;;;4.90;1.52;;;24.80;65.00;;;;;;3532326;40;20034;-66
2021/07/06 07:36:33;;;;;;;2.50;1.02;;;24.70;65.40;;;;;;3532278;40;20066;-66
2021/07/06 07:38:59;;;;;;;4.88;0.80;;;24.80;64.40;;;;;;3529947;40;20426;-66
2021/07/06 07:41:25;;;;;;;2.08;0.90;;;24.80;64.90;;;;;;3533576;40;20031;-66
2021/07/06 07:43:54;;;;;;;3.53;1.00;;;24.80;63.90;;;;;;3529098;40;20046;-66
2021/07/06 07:46:24;;;;;;;3.88;0.95;;;24.80;63.70;;;;;;3533439;40;20042;-66
2021/07/06 07:48:50;;;;;;;1.58;1.30;;;24.80;63.50;;;;;;3532093;40;20027;-68
2021/07/06 07:51:16;;;;;;;1.95;1.20;;;24.80;64.10;;;;;;3533769;40;20061;-66
2021/07/06 07:53:43;;;;;;;3.97;1.40;;;25.00;63.00;;;;;;3532648;40;20031;-66
2021/07/06 07:56:09;;;;;;;5.30;1.10;;;25.00;63.20;;;;;;3533397;40;20827;-66
2021/07/06 07:58:36;;;;;;;3.03;1.38;;;25.00;63.70;;;;;;3530038;40;20426;-66
2021/07/06 08:01:02;;;;;;;3.45;1.00;;;25.10;61.80;;;;;;3533331;40;20122;-66
2021/07/06 08:03:27;;;;;;;0.90;0.90;;;25.10;61.60;;;;;;3531182;40;20701;-66
2021/07/06 08:05:53;;;;;;;2.20;1.00;;;25.10;61.90;;;;;;3523668;40;20051;-66
2021/07/06 08:08:19;;;;;;;3.92;1.05;;;25.20;61.70;;;;;;3529332;40;20038;-66
2021/07/06 08:10:52;;;;;;;1.20;0.93;;;25.30;60.10;;;;;;3521284;40;20053;-66
2021/07/06 08:13:19;;;;;;;2.80;1.02;;;25.30;59.90;;;;;;3532401;40;20045;-66
2021/07/06 08:15:45;;;;;;;3.42;1.05;;;25.30;60.40;;;;;;3532693;40;20063;-66
2021/07/06 08:18:11;;;;;;;1.80;1.20;;;25.40;60.20;;;;;;3533276;40;20059;-66
2021/07/06 08:20:37;;;;;;;1.30;1.20;;;25.60;60.20;;;;;;3532983;40;20820;-66
2021/07/06 08:23:03;;;;;;;1.67;1.10;;;25.60;60.00;;;;;;3532482;40;20042;-66
2021/07/06 08:25:29;;;;;;;2.90;1.00;;;25.60;59.90;;;;;;3531787;40;20155;-66
2021/07/06 08:27:54;;;;;;;1.58;0.98;;;25.70;58.10;;;;;;3531589;40;20077;-66
2021/07/06 08:30:20;;;;;;;4.18;1.00;;;25.80;58.20;;;;;;3531366;40;20435;-66
2021/07/06 08:32:46;;;;;;;1.95;0.80;;;25.90;58.50;;;;;;3531705;40;20161;-66
2021/07/06 08:35:12;;;;;;;2.22;0.90;;;25.90;58.00;;;;;;3531703;40;20083;-66
2021/07/06 08:37:38;;;;;;;1.25;0.63;;;26.00;58.60;;;;;;3531568;40;20047;-66
2021/07/06 08:40:05;;;;;;;5.22;1.05;;;26.10;58.30;;;;;;3530827;40;20034;-66
2021/07/06 08:42:31;;;;;;;2.15;0.93;;;26.20;58.10;;;;;;3532181;40;20031;-66
2021/07/06 08:44:57;;;;;;;2.03;0.80;;;26.30;58.00;;;;;;3533995;40;20057;-66
2021/07/06 08:47:24;;;;;;;1.98;0.98;;;26.40;58.20;;;;;;3529773;40;20075;-66
2021/07/06 08:49:51;;;;;;;1.45;0.73;;;26.60;57.60;;;;;;3533364;40;20134;-66
2021/07/06 08:52:18;;;;;;;5.25;0.80;;;26.70;56.00;;;;;;3534627;40;20500;-68
2021/07/06 08:54:45;;;;;;;2.72;0.75;;;26.80;56.20;;;;;;3533091;40;20049;-66
2021/07/06 08:57:11;;;;;;;2.33;0.70;;;26.80;54.60;;;;;;3534685;40;20080;-66
2021/07/06 08:59:40;;;;;;;1.80;0.70;;;26.80;55.10;;;;;;3533756;40;20027;-66
2021/07/06 09:02:10;;;;;;;1.38;0.70;;;26.90;53.90;;;;;;3533108;40;20041;-66
2021/07/06 09:04:51;;;;;;;1.05;0.80;;;26.90;53.90;;;;;;3534530;40;20031;-66
2021/07/06 09:07:17;;;;;;;3.28;0.80;;;27.00;53.40;;;;;;3531880;40;20042;-66
2021/07/06 09:09:43;;;;;;;2.80;0.75;;;26.90;54.00;;;;;;3532876;40;20347;-66
2021/07/06 09:12:12;;;;;;;1.98;1.00;;;27.00;53.80;;;;;;3534336;40;20030;-66
2021/07/06 09:14:48;;;;;;;2.47;0.75;;;27.00;54.60;;;;;;3532578;40;20047;-66
2021/07/06 09:17:24;;;;;;;0.95;0.82;;;27.10;53.30;;;;;;3533550;40;20023;-66
2021/07/06 09:19:56;;;;;;;3.10;1.17;;;27.20;52.90;;;;;;3533882;40;20030;-66
2021/07/06 09:22:31;;;;;;;2.83;1.02;;;27.20;52.80;;;;;;3534202;40;20043;-66
2021/07/06 09:25:05;;;;;;;2.13;1.00;;;27.20;53.10;;;;;;3535070;40;20077;-66
2021/07/06 09:27:35;;;;;;;2.80;0.98;;;27.40;52.40;;;;;;3533852;40;20031;-66
2021/07/06 09:30:11;;;;;;;5.55;0.95;;;27.40;51.40;;;;;;3532579;40;20030;-66
2021/07/06 09:32:38;;;;;;;;;;;27.40;51.80;;;;;;3530633;40;20089;-65
2021/07/06 09:35:07;;;;;;;4.35;1.08;;;27.40;51.70;;;;;;3532175;40;19938;-66
2021/07/06 09:37:45;;;;;;;1.30;0.90;;;27.40;52.40;;;;;;3533570;40;20043;-66
2021/07/06 09:40:38;;;;;;;0.88;0.63;;;27.40;52.30;;;;;;3529011;40;20039;-66
2021/07/06 09:43:23;;;;;;;8.80;1.15;;;27.40;52.60;;;;;;3534260;40;20045;-66
2021/07/06 09:46:11;;;;;;;3.40;0.90;;;27.60;52.90;;;;;;3529850;40;20155;-66
2021/07/06 09:48:39;;;;;;;7.38;0.93;;;27.60;52.00;;;;;;3532758;40;20127;-66
2021/07/06 09:51:17;;;;;;;2.95;0.90;;;27.60;52.80;;;;;;3530490;40;20092;-66
2021/07/06 09:53:48;;;;;;;4.38;0.80;;;27.80;52.10;;;;;;3533355;40;20036;-67
2021/07/06 09:56:22;;;;;;;2.00;0.70;;;27.90;49.90;;;;;;3532178;40;20041;-66
2021/07/06 09:59:00;;;;;;;0.60;0.47;;;27.80;49.70;;;;;;3532963;40;20019;-66
2021/07/06 10:01:28;;;;;;;1.55;0.70;;;27.70;49.90;;;;;;3533914;40;20046;-66
2021/07/06 10:03:54;;;;;;;0.85;0.70;;;27.80;50.40;;;;;;3531670;40;20034;-66
2021/07/06 10:06:26;;;;;;;2.80;0.98;;;27.90;49.50;;;;;;3532540;40;20047;-66
2021/07/06 10:08:53;;;;;;;7.65;1.83;;;28.10;50.20;;;;;;3533518;40;20022;-66
2021/07/06 10:11:20;;;;;;;1.50;1.05;;;28.10;50.50;;;;;;3532595;40;20035;-66
2021/07/06 10:13:46;;;;;;;2.90;1.25;;;28.30;50.60;;;;;;3533584;40;20041;-66
2021/07/06 10:16:15;;;;;;;2.60;1.05;;;28.30;50.30;;;;;;3533067;40;20034;-66
2021/07/06 10:18:41;;;;;;;2.97;1.08;;;28.40;50.40;;;;;;3533388;40;20042;-66
2021/07/06 10:21:07;;;;;;;2.72;1.05;;;28.30;50.90;;;;;;3533658;40;20026;-66
2021/07/06 10:23:34;;;;;;;2.40;1.15;;;28.30;50.40;;;;;;3533857;40;20135;-66
2021/07/06 10:26:01;;;;;;;2.05;1.13;;;28.40;50.10;;;;;;3532491;40;20623;-66
2021/07/06 10:28:29;;;;;;;1.00;0.65;;;28.40;49.40;;;;;;3530916;40;20032;-66
2021/07/06 10:30:55;;;;;;;1.27;0.73;;;28.50;49.60;;;;;;3527321;40;20034;-66
2021/07/06 10:33:30;;;;;;;4.57;0.70;;;28.50;50.20;;;;;;3532603;40;20043;-65
2021/07/06 10:35:57;;;;;;;0.83;0.50;;;28.50;50.30;;;;;;3531285;40;20037;-66
2021/07/06 10:38:29;;;;;;;2.88;1.08;;;28.50;49.10;;;;;;3531668;40;20254;-66
2021/07/06 10:40:57;;;;;;;0.55;0.50;;;28.60;49.40;;;;;;3533399;40;20038;-66
2021/07/06 10:43:31;;;;;;;1.70;0.75;;;28.50;49.50;;;;;;3533096;40;20086;-66
2021/07/06 10:46:21;;;;;;;1.65;0.80;;;28.60;49.10;;;;;;3532665;40;20046;-66
2021/07/06 10:49:15;;;;;;;0.75;0.45;;;28.70;48.90;;;;;;3531710;40;20103;-66
2021/07/06 10:51:41;;;;;;;2.65;0.88;;;28.70;48.50;;;;;;3531064;40;20053;-66
2021/07/06 10:54:23;;;;;;;1.92;0.70;;;28.70;48.70;;;;;;3531360;40;20423;-66
2021/07/06 10:56:55;;;;;;;1.30;0.60;;;28.70;49.40;;;;;;3533119;40;20035;-65
2021/07/06 10:59:34;;;;;;;0.82;0.70;;;28.90;49.10;;;;;;3533834;40;20027;-66
2021/07/06 11:02:03;;;;;;;1.13;1.05;;;29.40;47.80;;;;;;3531266;40;20047;-66
2021/07/06 11:04:47;;;;;;;1.02;1.00;;;29.40;48.90;;;;;;3531726;40;20068;-66
2021/07/06 11:07:17;;;;;;;1.75;0.80;;;29.40;47.90;;;;;;3532783;40;20035;-65
2021/07/06 11:09:48;;;;;;;3.35;0.73;;;29.40;47.60;;;;;;3532028;40;20043;-66
2021/07/06 11:12:35;;;;;;;0.93;0.75;;;29.30;48.00;;;;;;3532456;40;20030;-66
2021/07/06 11:15:05;;;;;;;1.17;0.80;;;29.40;47.70;;;;;;3530414;40;20112;-66
2021/07/06 11:17:33;;;;;;;1.67;0.50;;;29.40;46.80;;;;;;3533875;40;20165;-66
2021/07/06 11:20:01;;;;;;;2.15;0.80;;;29.40;48.20;;;;;;3533291;40;20402;-66
2021/07/06 11:22:45;;;;;;;1.95;0.50;;;29.30;47.80;;;;;;3531540;40;20039;-66
2021/07/06 11:25:21;;;;;;;0.50;0.50;;;29.20;47.10;;;;;;3532868;40;20753;-66
2021/07/06 11:28:05;;;;;;;4.63;0.75;;;29.20;48.70;;;;;;3534558;40;20038;-65
2021/07/06 11:30:45;;;;;;;2.30;0.80;;;29.20;49.00;;;;;;3521659;40;20833;-65
2021/07/06 11:33:15;;;;;;;1.75;0.60;;;29.20;47.90;;;;;;3533092;40;20085;-65
2021/07/06 11:35:53;;;;;;;1.20;0.65;;;29.20;49.40;;;;;;3534841;40;20112;-66
2021/07/06 11:38:36;;;;;;;1.20;0.50;;;29.20;49.00;;;;;;3535294;40;20123;-67
2021/07/06 11:41:04;;;;;;;1.05;0.60;;;29.30;47.60;;;;;;3529117;40;20033;-66
2021/07/06 11:43:31;;;;;;;1.75;0.70;;;29.20;49.20;;;;;;3530375;40;20034;-66
2021/07/06 11:46:01;;;;;;;0.40;0.40;;;29.30;47.80;;;;;;3533332;40;20034;-65
2021/07/06 11:48:29;;;;;;;1.65;0.60;;;29.30;47.50;;;;;;3532068;40;20050;-66
2021/07/06 11:50:56;;;;;;;1.13;0.60;;;29.30;47.10;;;;;;3531888;40;20042;-65
2021/07/06 11:53:25;;;;;;;0.70;0.70;;;29.40;47.70;;;;;;3531534;40;20046;-66
2021/07/06 11:55:51;;;;;;;3.85;0.75;;;29.70;46.30;;;;;;3532879;40;20041;-66
2021/07/06 11:58:22;;;;;;;4.15;0.70;;;29.80;46.20;;;;;;3531759;40;20027;-66
2021/07/06 12:00:47;;;;;;;0.45;0.40;;;29.80;46.90;;;;;;3532072;40;20034;-66
2021/07/06 12:03:32;;;;;;;0.50;0.50;;;29.80;45.60;;;;;;3532041;40;20078;-66
2021/07/06 12:06:09;;;;;;;0.70;0.50;;;29.70;46.30;;;;;;3530282;40;20027;-66
2021/07/06 12:08:35;;;;;;;2.22;0.57;;;29.60;47.60;;;;;;3531867;40;20039;-66
2021/07/06 12:11:07;;;;;;;0.55;0.55;;;29.50;47.20;;;;;;3532218;40;20031;-66
2021/07/06 12:13:45;;;;;;;2.45;0.80;;;29.50;47.00;;;;;;3534150;40;20037;-66
2021/07/06 12:16:16;;;;;;;1.83;0.77;;;29.50;45.90;;;;;;3532822;40;20419;-66
2021/07/06 12:18:54;;;;;;;1.00;0.70;;;29.60;46.60;;;;;;3533116;40;20047;-66
2021/07/06 12:21:28;;;;;;;0.55;0.55;;;29.60;46.90;;;;;;3531327;40;20034;-66
2021/07/06 12:23:56;;;;;;;3.72;0.45;;;29.70;46.90;;;;;;3528970;40;20039;-66
2021/07/06 12:26:22;;;;;;;1.15;0.50;;;29.70;46.50;;;;;;3530656;40;20441;-66
2021/07/06 12:28:49;;;;;;;0.50;0.50;;;29.90;46.70;;;;;;3534006;40;20636;-66
2021/07/06 12:31:21;;;;;;;0.80;0.60;;;30.10;45.30;;;;;;3531362;40;20054;-66
2021/07/06 12:33:58;;;;;;;1.00;0.50;;;30.20;46.20;;;;;;3531992;40;20732;-66
2021/07/06 12:36:29;;;;;;;1.98;0.55;;;30.30;45.90;;;;;;3533035;40;20034;-66
2021/07/06 12:39:27;;;;;;;0.70;0.60;;;30.30;45.10;;;;;;3532522;40;20431;-66
2021/07/06 12:42:11;;;;;;;2.15;0.52;;;30.30;45.50;;;;;;3523597;40;20038;-66
2021/07/06 12:44:54;;;;;;;3.65;0.63;;;30.20;45.50;;;;;;3531774;40;20052;-66
2021/07/06 12:47:31;;;;;;;0.88;0.60;;;30.20;45.10;;;;;;3531237;40;20035;-66
2021/07/06 12:50:07;;;;;;;1.20;0.50;;;30.20;46.20;;;;;;3530898;40;20054;-66
2021/07/06 12:52:36;;;;;;;3.97;0.70;;;30.30;45.20;;;;;;3534165;40;20034;-66
2021/07/06 12:55:22;;;;;;;1.83;0.40;;;30.40;44.70;;;;;;3533088;40;20053;-66